aviador You're here:

SAVC Decoded Metar

COMODORO RIVADAVIA in ARGENTINA
Report Time2018-01-19 05:00:00
UTC Time2018-01-19 05:21:34
Flight Rules vfr VFR
Wind270° at 20 kt
W.Decomp.*RWY 25: 19.5 kt HW 4.5 kt RCW
W.Rank270° ranks 1
Current wind is above 270° avg. (12.6)
Visibility9999 m
Phenomena:N/A
Clouds:N/A
Expected CloudBase > 3,200 ft AGL from Temp-Dew spread
CeilingNone
Temp18°C (ISA +3)
Dew Point10°C (60% RH)
AAT10.9°C
QNH1013 hPa
Density Alt705 ft
Elevation151 ft
Report Wrong Elevation
Raw Report
SAVC 190500Z 27020KT 230V300 CAVOK 18/10 Q1013=

Extra information for SAVC:More info

Metar Taf Metar & Taf Last 4 Metars F.Rules Stats Wind Profile Meteogram Temp Stats Airport Information Weather charts Add Link Nearby VenuesMetar ALERT Operation Metar Decoded Social comments